sensor_id;sensor_type;location;lat;lon;timestamp;pressure;altitude;pressure_sealevel;temperature;humidity
38812;BME280;24553;51.640;-0.752;2023-03-04T00:01:10;102281.25;;;6.72;100.00
38812;BME280;24553;51.640;-0.752;2023-03-04T00:03:35;102277.41;;;6.65;100.00
38812;BME280;24553;51.640;-0.752;2023-03-04T00:06:01;102267.47;;;6.58;100.00
38812;BME280;24553;51.640;-0.752;2023-03-04T00:08:26;102280.41;;;6.61;100.00
38812;BME280;24553;51.640;-0.752;2023-03-04T00:10:52;102273.56;;;6.69;100.00
38812;BME280;24553;51.640;-0.752;2023-03-04T00:13:18;102273.31;;;6.72;100.00
38812;BME280;24553;51.640;-0.752;2023-03-04T00:15:45;102264.22;;;6.76;100.00
38812;BME280;24553;51.640;-0.752;2023-03-04T00:18:10;102269.59;;;6.75;100.00
38812;BME280;24553;51.640;-0.752;2023-03-04T00:20:36;102274.16;;;6.73;100.00
38812;BME280;24553;51.640;-0.752;2023-03-04T00:23:01;102281.25;;;6.61;100.00
38812;BME280;24553;51.640;-0.752;2023-03-04T00:25:26;102276.56;;;6.65;100.00
38812;BME280;24553;51.640;-0.752;2023-03-04T00:27:52;102285.56;;;6.62;100.00
38812;BME280;24553;51.640;-0.752;2023-03-04T00:30:17;102279.31;;;6.63;100.00
38812;BME280;24553;51.640;-0.752;2023-03-04T00:32:42;102275.59;;;6.66;100.00
38812;BME280;24553;51.640;-0.752;2023-03-04T00:35:08;102269.75;;;6.62;100.00
38812;BME280;24553;51.640;-0.752;2023-03-04T00:37:33;102285.31;;;6.65;100.00
38812;BME280;24553;51.640;-0.752;2023-03-04T00:39:58;102278.72;;;6.60;100.00
38812;BME280;24553;51.640;-0.752;2023-03-04T00:42:24;102272.88;;;6.56;100.00
38812;BME280;24553;51.640;-0.752;2023-03-04T00:44:49;102281.63;;;6.57;100.00
38812;BME280;24553;51.640;-0.752;2023-03-04T00:47:16;102271.44;;;6.52;100.00
38812;BME280;24553;51.640;-0.752;2023-03-04T00:49:41;102274.53;;;6.57;100.00
38812;BME280;24553;51.640;-0.752;2023-03-04T00:52:06;102269.28;;;6.57;100.00
38812;BME280;24553;51.640;-0.752;2023-03-04T00:54:32;102269.38;;;6.55;100.00
38812;BME280;24553;51.640;-0.752;2023-03-04T00:56:57;102278.16;;;6.56;100.00
38812;BME280;24553;51.640;-0.752;2023-03-04T00:59:22;102275.25;;;6.59;100.00
38812;BME280;24553;51.640;-0.752;2023-03-04T01:01:48;102281.47;;;6.58;100.00
38812;BME280;24553;51.640;-0.752;2023-03-04T01:04:13;102277.41;;;6.54;100.00
38812;BME280;24553;51.640;-0.752;2023-03-04T01:06:38;102278.84;;;6.47;100.00
38812;BME280;24553;51.640;-0.752;2023-03-04T01:09:04;102281.84;;;6.42;100.00
38812;BME280;24553;51.640;-0.752;2023-03-04T01:11:29;102291.22;;;6.35;100.00
38812;BME280;24553;51.640;-0.752;2023-03-04T01:13:54;102284.97;;;6.36;100.00
38812;BME280;24553;51.640;-0.752;2023-03-04T01:16:20;102285.69;;;6.38;100.00
38812;BME280;24553;51.640;-0.752;2023-03-04T01:18:45;102278.13;;;6.45;100.00
38812;BME280;24553;51.640;-0.752;2023-03-04T01:21:11;102281.38;;;6.48;100.00
38812;BME280;24553;51.640;-0.752;2023-03-04T01:23:37;102281.72;;;6.55;100.00
38812;BME280;24553;51.640;-0.752;2023-03-04T01:26:02;102281.88;;;6.53;100.00
38812;BME280;24553;51.640;-0.752;2023-03-04T01:28:28;102279.44;;;6.50;100.00
38812;BME280;24553;51.640;-0.752;2023-03-04T01:30:53;102290.47;;;6.44;100.00
38812;BME280;24553;51.640;-0.752;2023-03-04T01:33:19;102280.75;;;6.45;100.00
38812;BME280;24553;51.640;-0.752;2023-03-04T01:35:44;102283.16;;;6.37;100.00
38812;BME280;24553;51.640;-0.752;2023-03-04T01:38:10;102279.94;;;6.44;100.00
38812;BME280;24553;51.640;-0.752;2023-03-04T01:40:37;102268.56;;;6.44;100.00
38812;BME280;24553;51.640;-0.752;2023-03-04T01:43:02;102270.84;;;6.48;100.00
38812;BME280;24553;51.640;-0.752;2023-03-04T01:45:30;102269.75;;;6.51;100.00
38812;BME280;24553;51.640;-0.752;2023-03-04T01:47:56;102269.16;;;6.59;100.00
38812;BME280;24553;51.640;-0.752;2023-03-04T01:50:27;102258.47;;;6.60;100.00
38812;BME280;24553;51.640;-0.752;2023-03-04T01:52:54;102252.97;;;6.63;100.00
38812;BME280;24553;51.640;-0.752;2023-03-04T01:55:21;102255.13;;;6.58;100.00
38812;BME280;24553;51.640;-0.752;2023-03-04T01:57:49;102259.81;;;6.54;100.00
38812;BME280;24553;51.640;-0.752;2023-03-04T02:00:30;102249.63;;;6.50;100.00
38812;BME280;24553;51.640;-0.752;2023-03-04T02:03:02;102263.53;;;6.52;100.00
38812;BME280;24553;51.640;-0.752;2023-03-04T02:05:28;102254.78;;;6.51;100.00
38812;BME280;24553;51.640;-0.752;2023-03-04T02:07:55;102243.16;;;6.43;100.00
38812;BME280;24553;51.640;-0.752;2023-03-04T02:10:23;102243.53;;;6.49;100.00
38812;BME280;24553;51.640;-0.752;2023-03-04T02:12:48;102250.72;;;6.59;100.00
38812;BME280;24553;51.640;-0.752;2023-03-04T02:15:15;102239.56;;;6.55;100.00
38812;BME280;24553;51.640;-0.752;2023-03-04T02:17:41;102238.47;;;6.58;100.00
38812;BME280;24553;51.640;-0.752;2023-03-04T02:20:27;102237.88;;;6.65;100.00
38812;BME280;24553;51.640;-0.752;2023-03-04T02:23:11;102235.72;;;6.59;100.00
38812;BME280;24553;51.640;-0.752;2023-03-04T02:28:19;102221.00;;;6.45;100.00
38812;BME280;24553;51.640;-0.752;2023-03-04T02:30:45;102235.25;;;6.43;100.00
38812;BME280;24553;51.640;-0.752;2023-03-04T02:33:16;102228.81;;;6.36;100.00
38812;BME280;24553;51.640;-0.752;2023-03-04T02:35:41;102228.56;;;6.39;100.00
38812;BME280;24553;51.640;-0.752;2023-03-04T02:38:09;102222.22;;;6.41;100.00
38812;BME280;24553;51.640;-0.752;2023-03-04T02:40:34;102217.78;;;6.42;100.00
38812;BME280;24553;51.640;-0.752;2023-03-04T02:43:00;102215.84;;;6.44;100.00
38812;BME280;24553;51.640;-0.752;2023-03-04T02:45:37;102211.78;;;6.40;100.00
38812;BME280;24553;51.640;-0.752;2023-03-04T02:48:03;102208.06;;;6.42;100.00
38812;BME280;24553;51.640;-0.752;2023-03-04T02:50:33;102207.81;;;6.45;100.00
38812;BME280;24553;51.640;-0.752;2023-03-04T02:52:59;102208.91;;;6.43;100.00
38812;BME280;24553;51.640;-0.752;2023-03-04T02:55:24;102209.88;;;6.42;100.00
38812;BME280;24553;51.640;-0.752;2023-03-04T02:57:49;102213.84;;;6.25;100.00
38812;BME280;24553;51.640;-0.752;2023-03-04T03:00:15;102214.91;;;6.33;100.00
38812;BME280;24553;51.640;-0.752;2023-03-04T03:02:40;102206.41;;;6.41;100.00
38812;BME280;24553;51.640;-0.752;2023-03-04T03:05:06;102212.25;;;6.56;100.00
38812;BME280;24553;51.640;-0.752;2023-03-04T03:07:31;102207.31;;;6.63;100.00
38812;BME280;24553;51.640;-0.752;2023-03-04T03:09:59;102207.22;;;6.64;100.00
38812;BME280;24553;51.640;-0.752;2023-03-04T03:12:25;102207.94;;;6.66;100.00
38812;BME280;24553;51.640;-0.752;2023-03-04T03:14:50;102199.78;;;6.58;100.00
38812;BME280;24553;51.640;-0.752;2023-03-04T03:17:15;102195.47;;;6.57;100.00
38812;BME280;24553;51.640;-0.752;2023-03-04T03:19:41;102203.75;;;6.52;100.00
38812;BME280;24553;51.640;-0.752;2023-03-04T03:22:06;102197.84;;;6.60;100.00
38812;BME280;24553;51.640;-0.752;2023-03-04T03:24:31;102197.59;;;6.63;100.00
38812;BME280;24553;51.640;-0.752;2023-03-04T03:26:56;102193.91;;;6.54;100.00
38812;BME280;24553;51.640;-0.752;2023-03-04T03:29:22;102198.00;;;6.59;100.00
38812;BME280;24553;51.640;-0.752;2023-03-04T03:31:47;102202.19;;;6.61;100.00
38812;BME280;24553;51.640;-0.752;2023-03-04T03:34:12;102195.72;;;6.54;100.00
38812;BME280;24553;51.640;-0.752;2023-03-04T03:36:38;102206.25;;;6.54;100.00
38812;BME280;24553;51.640;-0.752;2023-03-04T03:39:03;102203.38;;;6.57;100.00
38812;BME280;24553;51.640;-0.752;2023-03-04T03:41:29;102197.13;;;6.58;100.00
38812;BME280;24553;51.640;-0.752;2023-03-04T03:43:55;102203.47;;;6.55;100.00
38812;BME280;24553;51.640;-0.752;2023-03-04T03:46:21;102201.47;;;6.48;100.00
38812;BME280;24553;51.640;-0.752;2023-03-04T03:48:46;102193.81;;;6.56;100.00
38812;BME280;24553;51.640;-0.752;2023-03-04T03:51:11;102194.84;;;6.65;100.00
38812;BME280;24553;51.640;-0.752;2023-03-04T03:53:37;102197.59;;;6.63;100.00
38812;BME280;24553;51.640;-0.752;2023-03-04T03:56:02;102199.88;;;6.68;100.00
38812;BME280;24553;51.640;-0.752;2023-03-04T03:58:28;102193.19;;;6.64;100.00
38812;BME280;24553;51.640;-0.752;2023-03-04T04:00:53;102202.66;;;6.66;100.00
38812;BME280;24553;51.640;-0.752;2023-03-04T04:03:19;102200.34;;;6.73;100.00
38812;BME280;24553;51.640;-0.752;2023-03-04T04:05:44;102194.13;;;6.74;100.00
38812;BME280;24553;51.640;-0.752;2023-03-04T04:08:15;102193.97;;;6.87;100.00
38812;BME280;24553;51.640;-0.752;2023-03-04T04:10:41;102187.72;;;6.88;100.00
38812;BME280;24553;51.640;-0.752;2023-03-04T04:13:06;102195.69;;;6.76;100.00
38812;BME280;24553;51.640;-0.752;2023-03-04T04:15:32;102186.06;;;6.87;100.00
38812;BME280;24553;51.640;-0.752;2023-03-04T04:17:57;102185.09;;;6.88;100.00
38812;BME280;24553;51.640;-0.752;2023-03-04T04:20:23;102188.06;;;6.94;100.00
38812;BME280;24553;51.640;-0.752;2023-03-04T04:22:49;102190.09;;;6.91;100.00
38812;BME280;24553;51.640;-0.752;2023-03-04T04:25:14;102196.00;;;6.94;100.00
38812;BME280;24553;51.640;-0.752;2023-03-04T04:27:39;102191.91;;;6.90;100.00
38812;BME280;24553;51.640;-0.752;2023-03-04T04:30:05;102197.19;;;6.90;100.00
38812;BME280;24553;51.640;-0.752;2023-03-04T04:32:30;102192.75;;;6.91;100.00
38812;BME280;24553;51.640;-0.752;2023-03-04T04:34:56;102200.06;;;6.87;100.00
38812;BME280;24553;51.640;-0.752;2023-03-04T04:37:21;102195.38;;;6.91;100.00
38812;BME280;24553;51.640;-0.752;2023-03-04T04:39:46;102196.47;;;6.88;100.00
38812;BME280;24553;51.640;-0.752;2023-03-04T04:42:12;102207.63;;;6.81;100.00
38812;BME280;24553;51.640;-0.752;2023-03-04T04:44:37;102216.84;;;6.86;100.00
38812;BME280;24553;51.640;-0.752;2023-03-04T04:47:03;102212.91;;;6.92;100.00
38812;BME280;24553;51.640;-0.752;2023-03-04T04:49:30;102206.06;;;6.89;100.00
38812;BME280;24553;51.640;-0.752;2023-03-04T04:51:56;102206.19;;;6.88;100.00
38812;BME280;24553;51.640;-0.752;2023-03-04T04:54:21;102211.56;;;6.86;100.00
38812;BME280;24553;51.640;-0.752;2023-03-04T04:56:47;102215.19;;;6.85;100.00
38812;BME280;24553;51.640;-0.752;2023-03-04T04:59:13;102219.66;;;6.62;100.00
38812;BME280;24553;51.640;-0.752;2023-03-04T05:01:38;102214.97;;;6.66;100.00
38812;BME280;24553;51.640;-0.752;2023-03-04T05:04:04;102208.16;;;6.63;100.00
38812;BME280;24553;51.640;-0.752;2023-03-04T05:06:29;102221.31;;;6.74;100.00
38812;BME280;24553;51.640;-0.752;2023-03-04T05:08:55;102222.53;;;6.70;100.00
38812;BME280;24553;51.640;-0.752;2023-03-04T05:11:20;102228.09;;;6.88;100.00
38812;BME280;24553;51.640;-0.752;2023-03-04T05:13:47;102223.66;;;6.89;100.00
38812;BME280;24553;51.640;-0.752;2023-03-04T05:16:13;102227.53;;;6.85;100.00
38812;BME280;24553;51.640;-0.752;2023-03-04T05:18:39;102233.75;;;6.84;100.00
38812;BME280;24553;51.640;-0.752;2023-03-04T05:21:04;102230.06;;;6.75;100.00
38812;BME280;24553;51.640;-0.752;2023-03-04T05:23:35;102232.81;;;6.73;100.00
38812;BME280;24553;51.640;-0.752;2023-03-04T05:26:02;102228.25;;;6.75;100.00
38812;BME280;24553;51.640;-0.752;2023-03-04T05:28:29;102236.91;;;6.66;100.00
38812;BME280;24553;51.640;-0.752;2023-03-04T05:30:54;102228.63;;;6.71;100.00
38812;BME280;24553;51.640;-0.752;2023-03-04T05:33:20;102237.00;;;6.76;100.00
38812;BME280;24553;51.640;-0.752;2023-03-04T05:35:47;102240.25;;;6.68;100.00
38812;BME280;24553;51.640;-0.752;2023-03-04T05:38:14;102241.56;;;6.63;100.00
38812;BME280;24553;51.640;-0.752;2023-03-04T05:40:40;102241.34;;;6.54;100.00
38812;BME280;24553;51.640;-0.752;2023-03-04T05:43:06;102241.09;;;6.58;100.00
38812;BME280;24553;51.640;-0.752;2023-03-04T05:45:32;102235.00;;;6.57;100.00
38812;BME280;24553;51.640;-0.752;2023-03-04T05:47:58;102242.66;;;6.60;100.00
38812;BME280;24553;51.640;-0.752;2023-03-04T05:50:24;102249.50;;;6.51;100.00
38812;BME280;24553;51.640;-0.752;2023-03-04T05:52:50;102244.56;;;6.69;100.00
38812;BME280;24553;51.640;-0.752;2023-03-04T05:55:16;102245.53;;;6.68;100.00
38812;BME280;24553;51.640;-0.752;2023-03-04T05:57:42;102241.31;;;6.77;100.00
38812;BME280;24553;51.640;-0.752;2023-03-04T06:00:08;102239.28;;;6.81;100.00
38812;BME280;24553;51.640;-0.752;2023-03-04T06:02:35;102238.44;;;6.80;100.00
38812;BME280;24553;51.640;-0.752;2023-03-04T06:05:01;102242.59;;;6.94;100.00
38812;BME280;24553;51.640;-0.752;2023-03-04T06:07:27;102234.69;;;6.94;100.00
38812;BME280;24553;51.640;-0.752;2023-03-04T06:09:52;102232.34;;;6.80;100.00
38812;BME280;24553;51.640;-0.752;2023-03-04T06:12:18;102240.81;;;6.83;100.00
38812;BME280;24553;51.640;-0.752;2023-03-04T06:14:43;102232.34;;;6.80;100.00
38812;BME280;24553;51.640;-0.752;2023-03-04T06:17:08;102236.28;;;6.85;100.00
38812;BME280;24553;51.640;-0.752;2023-03-04T06:19:34;102234.25;;;6.77;100.00
38812;BME280;24553;51.640;-0.752;2023-03-04T06:21:59;102241.66;;;6.84;100.00
38812;BME280;24553;51.640;-0.752;2023-03-04T06:24:24;102238.19;;;6.83;100.00
38812;BME280;24553;51.640;-0.752;2023-03-04T06:26:52;102238.53;;;6.90;100.00
38812;BME280;24553;51.640;-0.752;2023-03-04T06:29:17;102238.19;;;6.83;100.00
38812;BME280;24553;51.640;-0.752;2023-03-04T06:31:43;102235.22;;;6.76;100.00
38812;BME280;24553;51.640;-0.752;2023-03-04T06:34:08;102240.75;;;6.62;100.00
38812;BME280;24553;51.640;-0.752;2023-03-04T06:36:34;102237.75;;;6.67;100.00
38812;BME280;24553;51.640;-0.752;2023-03-04T06:39:02;102239.63;;;6.76;100.00
38812;BME280;24553;51.640;-0.752;2023-03-04T06:41:27;102234.47;;;6.86;100.00
38812;BME280;24553;51.640;-0.752;2023-03-04T06:43:53;102233.00;;;6.93;100.00
38812;BME280;24553;51.640;-0.752;2023-03-04T06:46:18;102236.06;;;7.09;100.00
38812;BME280;24553;51.640;-0.752;2023-03-04T06:48:44;102232.59;;;7.09;100.00
38812;BME280;24553;51.640;-0.752;2023-03-04T06:51:10;102245.44;;;7.02;100.00
38812;BME280;24553;51.640;-0.752;2023-03-04T06:53:36;102240.88;;;7.04;100.00
38812;BME280;24553;51.640;-0.752;2023-03-04T06:56:02;102250.50;;;6.94;100.00
38812;BME280;24553;51.640;-0.752;2023-03-04T06:58:28;102250.50;;;6.94;100.00
38812;BME280;24553;51.640;-0.752;2023-03-04T07:00:53;102256.16;;;6.89;100.00
38812;BME280;24553;51.640;-0.752;2023-03-04T07:03:18;102259.72;;;6.99;100.00
38812;BME280;24553;51.640;-0.752;2023-03-04T07:05:44;102257.31;;;7.08;100.00
38812;BME280;24553;51.640;-0.752;2023-03-04T07:08:09;102263.75;;;7.15;100.00
38812;BME280;24553;51.640;-0.752;2023-03-04T07:10:35;102265.13;;;6.98;100.00
38812;BME280;24553;51.640;-0.752;2023-03-04T07:13:00;102264.56;;;6.83;100.00
38812;BME280;24553;51.640;-0.752;2023-03-04T07:15:26;102267.81;;;6.75;100.00
38812;BME280;24553;51.640;-0.752;2023-03-04T07:17:51;102274.75;;;6.65;100.00
38812;BME280;24553;51.640;-0.752;2023-03-04T07:20:17;102270.56;;;6.63;100.00
38812;BME280;24553;51.640;-0.752;2023-03-04T07:22:43;102281.72;;;6.55;100.00
38812;BME280;24553;51.640;-0.752;2023-03-04T07:25:08;102274.78;;;6.54;100.00
38812;BME280;24553;51.640;-0.752;2023-03-04T07:27:33;102281.88;;;6.53;100.00
38812;BME280;24553;51.640;-0.752;2023-03-04T07:29:59;102281.00;;;6.53;100.00
38812;BME280;24553;51.640;-0.752;2023-03-04T07:32:24;102271.19;;;6.55;100.00
38812;BME280;24553;51.640;-0.752;2023-03-04T07:34:50;102273.94;;;6.65;100.00
38812;BME280;24553;51.640;-0.752;2023-03-04T07:37:15;102279.78;;;6.68;100.00
38812;BME280;24553;51.640;-0.752;2023-03-04T07:39:40;102273.56;;;6.69;100.00
38812;BME280;24553;51.640;-0.752;2023-03-04T07:42:06;102268.78;;;6.74;100.00
38812;BME280;24553;51.640;-0.752;2023-03-04T07:44:31;102268.75;;;6.86;100.00
38812;BME280;24553;51.640;-0.752;2023-03-04T07:46:56;102270.19;;;6.90;100.00
38812;BME280;24553;51.640;-0.752;2023-03-04T07:49:22;102275.94;;;6.95;100.00
38812;BME280;24553;51.640;-0.752;2023-03-04T07:51:47;102279.03;;;6.89;100.00
38812;BME280;24553;51.640;-0.752;2023-03-04T07:54:12;102287.56;;;6.81;100.00
38812;BME280;24553;51.640;-0.752;2023-03-04T07:56:38;102287.81;;;6.78;100.00
38812;BME280;24553;51.640;-0.752;2023-03-04T07:59:03;102290.94;;;6.83;100.00
38812;BME280;24553;51.640;-0.752;2023-03-04T08:01:34;102283.25;;;6.80;100.00
38812;BME280;24553;51.640;-0.752;2023-03-04T08:04:00;102287.44;;;6.83;100.00
38812;BME280;24553;51.640;-0.752;2023-03-04T08:06:27;102284.69;;;6.73;100.00
38812;BME280;24553;51.640;-0.752;2023-03-04T08:09:04;102290.09;;;6.83;100.00
38812;BME280;24553;51.640;-0.752;2023-03-04T08:11:31;102283.63;;;6.87;100.00
38812;BME280;24553;51.640;-0.752;2023-03-04T08:13:57;102293.69;;;6.70;100.00
38812;BME280;24553;51.640;-0.752;2023-03-04T08:16:24;102295.00;;;6.76;100.00
38812;BME280;24553;51.640;-0.752;2023-03-04T08:18:51;102306.53;;;6.75;100.00
38812;BME280;24553;51.640;-0.752;2023-03-04T08:21:19;102300.63;;;6.83;100.00
38812;BME280;24553;51.640;-0.752;2023-03-04T08:23:46;102296.56;;;6.90;100.00
38812;BME280;24553;51.640;-0.752;2023-03-04T08:26:15;102296.41;;;6.91;100.00
38812;BME280;24553;51.640;-0.752;2023-03-04T08:28:40;102288.97;;;7.08;100.00
38812;BME280;24553;51.640;-0.752;2023-03-04T08:31:06;102292.41;;;7.19;100.00
38812;BME280;24553;51.640;-0.752;2023-03-04T08:33:32;102294.66;;;7.24;100.00
38812;BME280;24553;51.640;-0.752;2023-03-04T08:35:57;102291.31;;;7.22;100.00
38812;BME280;24553;51.640;-0.752;2023-03-04T08:38:23;102293.47;;;7.17;100.00
38812;BME280;24553;51.640;-0.752;2023-03-04T08:40:55;102288.56;;;7.24;100.00
38812;BME280;24553;51.640;-0.752;2023-03-04T08:43:22;102288.81;;;7.20;100.00
38812;BME280;24553;51.640;-0.752;2023-03-04T08:45:48;102289.03;;;7.17;100.00
38812;BME280;24553;51.640;-0.752;2023-03-04T08:48:14;102285.00;;;7.13;100.00
38812;BME280;24553;51.640;-0.752;2023-03-04T08:50:40;102296.88;;;6.96;100.00
38812;BME280;24553;51.640;-0.752;2023-03-04T08:53:05;102291.50;;;6.98;100.00
38812;BME280;24553;51.640;-0.752;2023-03-04T08:55:31;102290.75;;;7.07;100.00
38812;BME280;24553;51.640;-0.752;2023-03-04T08:57:56;102286.19;;;7.09;100.00
38812;BME280;24553;51.640;-0.752;2023-03-04T09:00:22;102288.72;;;7.11;100.00
38812;BME280;24553;51.640;-0.752;2023-03-04T09:02:48;102287.63;;;7.13;100.00
38812;BME280;24553;51.640;-0.752;2023-03-04T09:05:13;102272.94;;;7.32;100.00
38812;BME280;24553;51.640;-0.752;2023-03-04T09:07:39;102280.94;;;7.41;100.00
38812;BME280;24553;51.640;-0.752;2023-03-04T09:10:04;102275.31;;;7.35;100.00
38812;BME280;24553;51.640;-0.752;2023-03-04T09:12:30;102280.47;;;7.36;100.00
38812;BME280;24553;51.640;-0.752;2023-03-04T09:14:55;102283.31;;;7.45;100.00
38812;BME280;24553;51.640;-0.752;2023-03-04T09:17:21;102285.31;;;7.52;100.00
38812;BME280;24553;51.640;-0.752;2023-03-04T09:19:46;102281.97;;;7.50;100.00
38812;BME280;24553;51.640;-0.752;2023-03-04T09:22:12;102280.16;;;7.51;100.00
38812;BME280;24553;51.640;-0.752;2023-03-04T09:24:37;102285.91;;;7.56;100.00
38812;BME280;24553;51.640;-0.752;2023-03-04T09:27:02;102281.22;;;7.59;100.00
38812;BME280;24553;51.640;-0.752;2023-03-04T09:29:28;102284.16;;;7.66;100.00
38812;BME280;24553;51.640;-0.752;2023-03-04T09:31:53;102278.13;;;7.75;100.00
38812;BME280;24553;51.640;-0.752;2023-03-04T09:34:18;102284.19;;;7.87;100.00
38812;BME280;24553;51.640;-0.752;2023-03-04T09:36:44;102282.44;;;7.97;100.00
38812;BME280;24553;51.640;-0.752;2023-03-04T09:39:09;102286.31;;;7.93;100.00
38812;BME280;24553;51.640;-0.752;2023-03-04T09:41:41;102283.34;;;7.86;100.00
38812;BME280;24553;51.640;-0.752;2023-03-04T09:46:58;102287.69;;;7.88;100.00
38812;BME280;24553;51.640;-0.752;2023-03-04T09:49:24;102287.22;;;7.82;100.00
38812;BME280;24553;51.640;-0.752;2023-03-04T10:05:27;102292.16;;;7.97;100.00
38812;BME280;24553;51.640;-0.752;2023-03-04T10:08:01;102286.88;;;7.76;100.00
38812;BME280;24553;51.640;-0.752;2023-03-04T10:10:35;102283.91;;;7.69;100.00
38812;BME280;24553;51.640;-0.752;2023-03-04T10:13:02;102286.19;;;7.74;100.00
38812;BME280;24553;51.640;-0.752;2023-03-04T10:15:35;102286.31;;;7.93;100.00
38812;BME280;24553;51.640;-0.752;2023-03-04T10:20:49;102286.22;;;8.04;100.00
38812;BME280;24553;51.640;-0.752;2023-03-04T10:23:25;102291.59;;;8.14;100.00
38812;BME280;24553;51.640;-0.752;2023-03-04T10:25:51;102286.41;;;8.13;100.00
38812;BME280;24553;51.640;-0.752;2023-03-04T10:28:28;102285.09;;;8.28;100.00
38812;BME280;24553;51.640;-0.752;2023-03-04T10:31:19;102276.06;;;8.51;100.00
38812;BME280;24553;51.640;-0.752;2023-03-04T10:33:46;102282.22;;;8.62;100.00
38812;BME280;24553;51.640;-0.752;2023-03-04T10:44:32;102275.31;;;8.80;100.00
38812;BME280;24553;51.640;-0.752;2023-03-04T10:46:59;102264.72;;;8.70;100.00
38812;BME280;24553;51.640;-0.752;2023-03-04T10:49:26;102264.00;;;8.68;100.00
38812;BME280;24553;51.640;-0.752;2023-03-04T10:52:00;102263.03;;;8.69;100.00
38812;BME280;24553;51.640;-0.752;2023-03-04T10:57:16;102255.97;;;8.70;100.00
38812;BME280;24553;51.640;-0.752;2023-03-04T11:02:48;102259.81;;;8.66;100.00
38812;BME280;24553;51.640;-0.752;2023-03-04T11:07:48;102254.81;;;8.63;100.00
38812;BME280;24553;51.640;-0.752;2023-03-04T11:15:24;102256.69;;;8.91;100.00
38812;BME280;24553;51.640;-0.752;2023-03-04T11:18:08;102258.91;;;9.06;100.00
38812;BME280;24553;51.640;-0.752;2023-03-04T11:20:38;102256.59;;;9.22;100.00
38812;BME280;24553;51.640;-0.752;2023-03-04T11:23:11;102251.16;;;9.14;100.00
38812;BME280;24553;51.640;-0.752;2023-03-04T11:26:11;102246.69;;;9.34;100.00
38812;BME280;24553;51.640;-0.752;2023-03-04T11:28:44;102244.31;;;9.31;100.00
38812;BME280;24553;51.640;-0.752;2023-03-04T11:31:14;102246.41;;;9.27;100.00
38812;BME280;24553;51.640;-0.752;2023-03-04T11:33:54;102233.06;;;9.19;100.00
38812;BME280;24553;51.640;-0.752;2023-03-04T11:36:24;102242.22;;;9.15;100.00
38812;BME280;24553;51.640;-0.752;2023-03-04T11:38:54;102236.91;;;8.95;100.00
38812;BME280;24553;51.640;-0.752;2023-03-04T11:41:32;102236.94;;;9.25;100.00
38812;BME280;24553;51.640;-0.752;2023-03-04T11:44:00;102224.38;;;9.66;100.00
38812;BME280;24553;51.640;-0.752;2023-03-04T12:00:33;102218.00;;;9.10;100.00
38812;BME280;24553;51.640;-0.752;2023-03-04T12:03:09;102216.84;;;8.93;100.00
38812;BME280;24553;51.640;-0.752;2023-03-04T12:14:29;102208.34;;;8.70;100.00
38812;BME280;24553;51.640;-0.752;2023-03-04T12:17:19;102207.38;;;8.90;100.00
38812;BME280;24553;51.640;-0.752;2023-03-04T12:22:39;102191.50;;;8.90;100.00
38812;BME280;24553;51.640;-0.752;2023-03-04T12:25:31;102187.63;;;8.94;100.00
38812;BME280;24553;51.640;-0.752;2023-03-04T12:28:24;102183.31;;;8.93;100.00
38812;BME280;24553;51.640;-0.752;2023-03-04T12:39:18;102172.31;;;9.27;100.00
38812;BME280;24553;51.640;-0.752;2023-03-04T12:44:43;102160.88;;;8.88;100.00
38812;BME280;24553;51.640;-0.752;2023-03-04T12:52:21;102156.28;;;8.80;100.00
38812;BME280;24553;51.640;-0.752;2023-03-04T12:54:50;102152.69;;;8.91;100.00
38812;BME280;24553;51.640;-0.752;2023-03-04T12:57:25;102146.81;;;8.87;100.00
38812;BME280;24553;51.640;-0.752;2023-03-04T13:00:16;102157.28;;;8.99;100.00
38812;BME280;24553;51.640;-0.752;2023-03-04T13:08:50;102143.91;;;8.21;100.00
38812;BME280;24553;51.640;-0.752;2023-03-04T13:18:59;102137.91;;;8.98;100.00
38812;BME280;24553;51.640;-0.752;2023-03-04T13:21:29;102136.09;;;9.18;100.00
38812;BME280;24553;51.640;-0.752;2023-03-04T13:23:56;102132.47;;;9.19;100.00
38812;BME280;24553;51.640;-0.752;2023-03-04T13:26:31;102124.38;;;9.11;100.00
38812;BME280;24553;51.640;-0.752;2023-03-04T13:31:57;102114.50;;;9.13;100.00
38812;BME280;24553;51.640;-0.752;2023-03-04T13:37:35;102110.50;;;8.89;100.00
38812;BME280;24553;51.640;-0.752;2023-03-04T13:42:45;102104.38;;;8.79;100.00
38812;BME280;24553;51.640;-0.752;2023-03-04T13:47:54;102098.53;;;8.76;100.00
38812;BME280;24553;51.640;-0.752;2023-03-04T13:52:45;102097.88;;;7.01;100.00
38812;BME280;24553;51.640;-0.752;2023-03-04T13:57:57;102099.22;;;7.98;100.00
38812;BME280;24553;51.640;-0.752;2023-03-04T14:00:24;102096.97;;;8.44;100.00
38812;BME280;24553;51.640;-0.752;2023-03-04T14:02:50;102103.53;;;8.49;100.00
38812;BME280;24553;51.640;-0.752;2023-03-04T14:05:15;102105.06;;;8.52;100.00
38812;BME280;24553;51.640;-0.752;2023-03-04T14:07:40;102104.50;;;8.78;100.00
38812;BME280;24553;51.640;-0.752;2023-03-04T14:10:22;102103.78;;;8.95;100.00
38812;BME280;24553;51.640;-0.752;2023-03-04T14:15:20;102097.28;;;8.60;100.00
38812;BME280;24553;51.640;-0.752;2023-03-04T14:17:49;102105.31;;;8.49;100.00
38812;BME280;24553;51.640;-0.752;2023-03-04T14:22:54;102091.56;;;8.45;100.00
38812;BME280;24553;51.640;-0.752;2023-03-04T14:25:21;102094.34;;;8.54;100.00
38812;BME280;24553;51.640;-0.752;2023-03-04T14:27:47;102088.50;;;8.60;100.00
38812;BME280;24553;51.640;-0.752;2023-03-04T14:30:26;102076.09;;;8.80;100.00
38812;BME280;24553;51.640;-0.752;2023-03-04T14:32:55;102078.63;;;8.91;100.00
38812;BME280;24553;51.640;-0.752;2023-03-04T14:35:25;102081.94;;;8.93;100.00
38812;BME280;24553;51.640;-0.752;2023-03-04T14:38:14;102073.88;;;8.85;100.00
38812;BME280;24553;51.640;-0.752;2023-03-04T14:40:44;102074.03;;;8.64;100.00
38812;BME280;24553;51.640;-0.752;2023-03-04T14:43:17;102076.94;;;8.51;100.00